Crum Creek, New York
Current Conditions -  °F | °C
As of 8:50 PM on Saturday 22 Nov 2014 (Local Time) from KNY0 Reporting Station
Overcast Overcast  
Wind Chill: 25°   Ceiling: 2400
Heat Index: 30°   Visibility: 7mi
Dew Point: 28°   Wind: 5mph
Humidity: 93%   Direction: 170°S
Pressure: 30.04"   Gusts: NA
Location:  43.035°N, 74.6217°W
Report Text: KNY0 230150Z AUTO 17004KT 7SM OVC024 M01/M02 A3004 RMK AO2 T10111021
Loading
Personal Weather Stations






























Interactive Weather Map New forecast layout! Learn more

10-Day Weather Forecast

Advertisements
Track Severe Weather on mobile